createdAt,value
2022-11-05T00:01:42.501Z,67.97
2022-11-05T00:05:03.305Z,57.10
2022-11-05T00:08:24.374Z,56.97
2022-11-05T00:11:46.574Z,54.03
2022-11-05T00:15:08.214Z,42.40
2022-11-05T00:18:10.829Z,31.58
2022-11-05T00:21:33.241Z,26.08
2022-11-05T00:24:53.981Z,22.30
2022-11-05T00:28:01.580Z,19.57
2022-11-05T00:31:05.932Z,19.63
2022-11-05T00:34:08.099Z,16.13
2022-11-05T00:37:10.266Z,18.60
2022-11-05T00:40:13.782Z,15.98
2022-11-05T00:43:34.696Z,15.70
2022-11-05T00:46:36.800Z,15.10
2022-11-05T00:49:38.962Z,15.70
2022-11-05T00:52:56.205Z,15.00
2022-11-05T00:55:58.544Z,15.32
2022-11-05T00:59:00.720Z,15.63
2022-11-05T01:02:03.077Z,15.73
2022-11-05T01:05:05.636Z,14.23
2022-11-05T01:08:09.743Z,16.42
2022-11-05T01:11:33.124Z,16.33
2022-11-05T01:14:35.625Z,15.70
2022-11-05T01:17:37.808Z,16.63
2022-11-05T01:20:40.510Z,17.35
2022-11-05T01:23:42.910Z,15.77
2022-11-05T01:26:45.026Z,20.30
2022-11-05T01:29:47.171Z,15.43
2022-11-05T01:32:49.768Z,14.75
2022-11-05T01:35:51.959Z,15.77
2022-11-05T01:38:54.188Z,15.68
2022-11-05T01:41:56.885Z,15.23
2022-11-05T01:45:02.542Z,15.67
2022-11-05T01:48:09.349Z,16.05
2022-11-05T01:51:16.496Z,16.48
2022-11-05T01:54:23.803Z,15.05
2022-11-05T01:57:26.537Z,17.13
2022-11-05T02:00:28.719Z,16.00
2022-11-05T02:03:31.231Z,16.40
2022-11-05T02:06:35.285Z,12.98
2022-11-05T02:10:02.288Z,15.00
2022-11-05T02:13:04.469Z,15.07
2022-11-05T02:16:26.030Z,12.50
2022-11-05T02:19:52.087Z,14.18
2022-11-05T02:22:57.012Z,12.63
2022-11-05T02:26:14.402Z,11.52
2022-11-05T02:29:35.097Z,9.77
2022-11-05T02:32:59.300Z,6.00
2022-11-05T02:36:26.482Z,5.40
2022-11-05T02:39:41.947Z,5.50
2022-11-05T02:42:53.207Z,5.00
2022-11-05T02:46:07.490Z,5.75
2022-11-05T02:49:13.835Z,4.90
2022-11-05T02:52:43.340Z,6.22
2022-11-05T02:56:00.633Z,8.10
2022-11-05T02:59:02.928Z,6.15
2022-11-05T03:02:05.904Z,6.18
2022-11-05T03:05:08.250Z,6.17
2022-11-05T03:08:19.629Z,4.43
2022-11-05T03:11:24.114Z,5.78
2022-11-05T03:15:00.275Z,4.63
2022-11-05T03:18:06.465Z,4.90
2022-11-05T03:21:31.965Z,5.27
2022-11-05T03:24:37.640Z,4.80
2022-11-05T03:27:43.317Z,4.40
2022-11-05T03:30:46.098Z,4.78
2022-11-05T03:33:52.132Z,7.68
2022-11-05T03:36:56.456Z,4.70
2022-11-05T03:40:01.087Z,4.80
2022-11-05T03:43:06.875Z,5.70
2022-11-05T03:46:19.865Z,5.18
2022-11-05T03:49:25.822Z,5.35
2022-11-05T03:52:35.131Z,5.90
2022-11-05T03:55:44.521Z,5.03
2022-11-05T03:58:47.596Z,4.32
2022-11-05T04:01:49.926Z,4.68
2022-11-05T04:04:52.925Z,5.53
2022-11-05T04:08:14.611Z,5.07
2022-11-05T04:11:35.449Z,4.40
2022-11-05T04:14:39.444Z,5.50
2022-11-05T04:17:41.905Z,6.18
2022-11-05T04:21:02.640Z,7.05
2022-11-05T04:24:08.313Z,5.60
2022-11-05T04:27:11.349Z,5.90
2022-11-05T04:30:18.875Z,5.35
2022-11-05T04:33:21.124Z,5.75
2022-11-05T04:36:23.307Z,5.97
2022-11-05T04:39:25.487Z,6.88
2022-11-05T04:42:28.197Z,7.65
2022-11-05T04:45:34.313Z,7.15
2022-11-05T04:48:36.947Z,6.90
2022-11-05T04:51:39.082Z,6.43
2022-11-05T04:54:41.212Z,8.93
2022-11-05T04:57:43.676Z,7.05
2022-11-05T05:00:45.886Z,6.30
2022-11-05T05:03:51.908Z,7.65
2022-11-05T05:06:54.116Z,7.37
2022-11-05T05:09:56.631Z,6.82
2022-11-05T05:12:58.784Z,8.85
2022-11-05T05:16:06.384Z,8.27
2022-11-05T05:19:08.545Z,8.60
2022-11-05T05:22:10.798Z,9.87
2022-11-05T05:25:13.010Z,9.95
2022-11-05T05:28:15.208Z,8.73
2022-11-05T05:31:17.374Z,10.00
2022-11-05T05:34:19.737Z,11.15
2022-11-05T05:37:22.032Z,9.20
2022-11-05T05:40:24.839Z,11.02
2022-11-05T05:43:34.308Z,14.40
2022-11-05T05:46:36.747Z,11.90
2022-11-05T05:49:38.894Z,10.43
2022-11-05T05:52:41.152Z,13.67
2022-11-05T05:55:43.574Z,13.27
2022-11-05T05:58:46.520Z,12.13
2022-11-05T06:01:48.765Z,12.07
2022-11-05T06:04:50.949Z,12.38
2022-11-05T06:07:57.161Z,12.73
2022-11-05T06:11:00.005Z,12.23
2022-11-05T06:14:02.391Z,10.85
2022-11-05T06:17:04.527Z,12.70
2022-11-05T06:20:08.551Z,10.35
2022-11-05T06:23:11.822Z,13.00
2022-11-05T06:26:17.389Z,13.20
2022-11-05T06:29:19.572Z,13.23
2022-11-05T06:32:22.032Z,11.75
2022-11-05T06:35:24.139Z,12.13
2022-11-05T06:38:26.315Z,13.77
2022-11-05T06:41:28.451Z,12.68
2022-11-05T06:44:30.627Z,13.55
2022-11-05T06:47:32.827Z,11.30
2022-11-05T06:50:35.307Z,13.23
2022-11-05T06:53:37.479Z,11.93
2022-11-05T06:56:39.651Z,12.73
2022-11-05T06:59:41.835Z,11.40
2022-11-05T07:02:44.071Z,11.07
2022-11-05T07:05:48.447Z,10.40
2022-11-05T07:08:51.201Z,12.33
2022-11-05T07:11:54.324Z,12.98
2022-11-05T07:14:56.775Z,12.98
2022-11-05T07:17:59.862Z,8.82
2022-11-05T07:21:02.036Z,9.43
2022-11-05T07:24:04.517Z,8.37
2022-11-05T07:27:06.721Z,9.75
2022-11-05T07:30:10.164Z,10.57
2022-11-05T07:33:12.701Z,9.55
2022-11-05T07:36:15.136Z,8.52
2022-11-05T07:39:17.320Z,9.10
2022-11-05T07:42:19.435Z,9.45
2022-11-05T07:45:22.669Z,9.20
2022-11-05T07:48:24.961Z,8.60
2022-11-05T07:51:27.198Z,9.73
2022-11-05T07:54:29.364Z,8.27
2022-11-05T07:57:31.542Z,7.93
2022-11-05T08:00:33.980Z,9.32
2022-11-05T08:03:36.375Z,7.85
2022-11-05T08:06:38.597Z,8.23
2022-11-05T08:09:40.703Z,7.63
2022-11-05T08:12:42.983Z,7.47
2022-11-05T08:15:45.358Z,7.18
2022-11-05T08:18:48.377Z,8.05
2022-11-05T08:21:50.513Z,7.53
2022-11-05T08:24:52.705Z,7.03
2022-11-05T08:28:02.524Z,6.70
2022-11-05T08:31:04.844Z,8.50
2022-11-05T08:34:07.862Z,7.03
2022-11-05T08:37:10.119Z,6.60
2022-11-05T08:40:12.468Z,6.17
2022-11-05T08:43:15.035Z,7.13
2022-11-05T08:46:17.320Z,7.07
2022-11-05T08:49:19.513Z,5.72
2022-11-05T08:52:21.746Z,5.78
2022-11-05T08:55:24.152Z,5.13
2022-11-05T08:58:26.330Z,5.63
2022-11-05T09:01:28.578Z,4.95
2022-11-05T09:04:30.883Z,5.32
2022-11-05T09:07:33.147Z,12.73
2022-11-05T09:10:35.714Z,5.87
2022-11-05T09:13:37.957Z,5.13
2022-11-05T09:16:42.279Z,6.45
2022-11-05T09:19:44.610Z,6.18
2022-11-05T09:22:46.993Z,8.05
2022-11-05T09:25:49.176Z,4.70
2022-11-05T09:28:51.342Z,5.00
2022-11-05T09:31:53.585Z,4.38
2022-11-05T09:34:55.747Z,4.25
2022-11-05T09:38:00.897Z,4.82
2022-11-05T09:41:05.842Z,4.87
2022-11-05T09:44:15.096Z,5.18
2022-11-05T09:47:24.949Z,4.15
2022-11-05T09:50:37.005Z,4.28
2022-11-05T09:53:40.954Z,4.30
2022-11-05T09:56:43.597Z,4.27
2022-11-05T09:59:49.018Z,4.45
2022-11-05T10:02:58.320Z,5.22
2022-11-05T10:06:08.224Z,5.38
2022-11-05T10:09:25.142Z,6.25
2022-11-05T10:12:35.540Z,4.30
2022-11-05T10:15:43.118Z,4.57
2022-11-05T10:18:51.104Z,4.20
2022-11-05T10:22:16.538Z,4.80
2022-11-05T10:25:21.367Z,5.05
2022-11-05T10:28:25.731Z,5.33
2022-11-05T10:31:34.292Z,5.55
2022-11-05T10:34:38.860Z,4.28
2022-11-05T10:37:41.446Z,4.57
2022-11-05T10:41:02.018Z,5.18
2022-11-05T10:44:19.601Z,5.37
2022-11-05T10:47:34.187Z,6.13
2022-11-05T10:50:36.590Z,6.05
2022-11-05T10:53:39.219Z,4.68
2022-11-05T10:56:41.724Z,7.18
2022-11-05T10:59:43.915Z,4.33
2022-11-05T11:02:48.638Z,4.45
2022-11-05T11:05:59.202Z,5.93
2022-11-05T11:09:03.219Z,5.70
2022-11-05T11:12:12.036Z,5.45
2022-11-05T11:15:17.499Z,15.43
2022-11-05T11:18:35.960Z,5.13
2022-11-05T11:21:42.117Z,4.60
2022-11-05T11:24:54.220Z,5.05
2022-11-05T11:28:02.842Z,5.45
2022-11-05T11:31:05.729Z,4.03
2022-11-05T11:34:17.217Z,5.22
2022-11-05T11:37:26.965Z,4.47
2022-11-05T11:40:33.039Z,4.72
2022-11-05T11:43:38.070Z,5.20
2022-11-05T11:46:41.675Z,4.90
2022-11-05T11:50:00.273Z,3.63
2022-11-05T11:53:26.444Z,4.45
2022-11-05T11:56:30.371Z,3.92
2022-11-05T12:00:02.423Z,4.15
2022-11-05T12:03:09.405Z,5.13
2022-11-05T12:06:14.225Z,5.18
2022-11-05T12:09:40.923Z,3.88
2022-11-05T12:12:43.095Z,4.35
2022-11-05T12:15:52.816Z,4.65
2022-11-05T12:19:25.578Z,9.33
2022-11-05T12:22:52.976Z,5.80
2022-11-05T12:26:00.198Z,3.88
2022-11-05T12:29:35.517Z,5.85
2022-11-05T12:32:49.658Z,3.67
2022-11-05T12:36:10.578Z,4.30
2022-11-05T12:39:22.932Z,3.83
2022-11-05T12:42:31.643Z,3.53
2022-11-05T12:46:03.489Z,3.45
2022-11-05T12:49:25.904Z,3.40
2022-11-05T12:52:28.046Z,4.87
2022-11-05T12:55:38.456Z,3.42
2022-11-05T12:58:45.386Z,3.22
2022-11-05T13:01:56.711Z,3.65
2022-11-05T13:05:04.112Z,3.78
2022-11-05T13:08:19.088Z,3.90
2022-11-05T13:11:21.596Z,3.45
2022-11-05T13:14:35.709Z,3.40
2022-11-05T13:18:12.053Z,3.42
2022-11-05T13:21:15.385Z,3.67
2022-11-05T13:24:31.810Z,4.07
2022-11-05T13:27:46.840Z,4.10
2022-11-05T13:30:53.391Z,5.05
2022-11-05T13:33:56.325Z,3.40
2022-11-05T13:37:21.594Z,3.65
2022-11-05T13:40:41.113Z,3.40
2022-11-05T13:44:05.898Z,4.82
2022-11-05T13:47:36.072Z,7.40
2022-11-05T13:50:48.658Z,10.00
2022-11-05T13:54:11.413Z,3.83
2022-11-05T13:57:32.440Z,4.13
2022-11-05T14:01:04.528Z,6.15
2022-11-05T14:04:07.035Z,8.05
2022-11-05T14:07:33.079Z,4.40
2022-11-05T14:10:41.669Z,6.57
2022-11-05T14:13:45.888Z,5.70
2022-11-05T14:17:08.418Z,3.65
2022-11-05T14:20:25.305Z,7.72
2022-11-05T14:23:28.647Z,5.05
2022-11-05T14:26:33.257Z,4.25
2022-11-05T14:29:43.664Z,3.53
2022-11-05T14:32:46.530Z,3.50
2022-11-05T14:35:49.087Z,5.30
2022-11-05T14:38:53.411Z,4.75
2022-11-05T14:41:56.612Z,4.93
2022-11-05T14:45:20.545Z,4.77
2022-11-05T14:48:30.677Z,6.35
2022-11-05T14:51:36.646Z,4.40
2022-11-05T14:54:45.370Z,2.97
2022-11-05T14:57:53.357Z,3.65
2022-11-05T15:00:56.511Z,4.47
2022-11-05T15:04:18.658Z,4.15
2022-11-05T15:07:24.021Z,4.20
2022-11-05T15:10:37.466Z,4.32
2022-11-05T15:13:55.029Z,3.70
2022-11-05T15:17:03.433Z,3.50
2022-11-05T15:20:14.605Z,3.63
2022-11-05T15:23:19.492Z,4.25
2022-11-05T15:26:45.612Z,3.53
2022-11-05T15:29:47.888Z,4.22
2022-11-05T15:32:52.886Z,7.27
2022-11-05T15:35:55.598Z,4.00
2022-11-05T15:39:29.299Z,4.15
2022-11-05T15:42:33.994Z,3.63
2022-11-05T15:45:39.052Z,4.05
2022-11-05T15:49:03.852Z,3.63
2022-11-05T15:52:12.034Z,3.50
2022-11-05T15:55:14.306Z,4.55
2022-11-05T15:58:17.226Z,3.78
2022-11-05T16:01:28.555Z,6.80
2022-11-05T16:04:33.076Z,6.70
2022-11-05T16:07:35.557Z,9.32
2022-11-05T16:10:49.935Z,9.95
2022-11-05T16:13:53.345Z,6.25
2022-11-05T16:16:55.798Z,5.35
2022-11-05T16:19:58.576Z,10.43
2022-11-05T16:23:03.802Z,8.07
2022-11-05T16:26:06.297Z,5.95
2022-11-05T16:29:22.312Z,6.93
2022-11-05T16:32:31.431Z,8.63
2022-11-05T16:35:40.013Z,6.57
2022-11-05T16:38:43.211Z,4.63
2022-11-05T16:41:46.603Z,6.45
2022-11-05T16:44:55.334Z,5.40
2022-11-05T16:47:59.354Z,4.60
2022-11-05T16:51:02.545Z,5.53
2022-11-05T16:54:06.762Z,6.32
2022-11-05T16:57:42.930Z,6.50
2022-11-05T17:00:46.437Z,6.18
2022-11-05T17:03:50.856Z,4.20
2022-11-05T17:06:53.847Z,9.67
2022-11-05T17:09:56.941Z,6.82
2022-11-05T17:13:17.648Z,15.75
2022-11-05T17:16:21.462Z,27.02
2022-11-05T17:19:25.270Z,8.70
2022-11-05T17:22:28.667Z,46.83
2022-11-05T17:25:32.588Z,40.10
2022-11-05T17:28:36.453Z,8.80
2022-11-05T17:31:46.257Z,6.43
2022-11-05T17:34:49.478Z,6.13
2022-11-05T17:37:52.094Z,6.00
2022-11-05T17:40:55.066Z,6.30
2022-11-05T17:43:58.904Z,5.47
2022-11-05T17:47:02.548Z,6.20
2022-11-05T17:50:08.009Z,5.57
2022-11-05T17:53:12.497Z,4.67
2022-11-05T17:56:28.813Z,5.15
2022-11-05T17:59:35.276Z,4.57
2022-11-05T18:02:37.983Z,4.97
2022-11-05T18:05:41.327Z,4.95
2022-11-05T18:08:44.423Z,4.30
2022-11-05T18:11:47.329Z,4.80
2022-11-05T18:14:52.852Z,5.00
2022-11-05T18:17:55.881Z,4.93
2022-11-05T18:20:59.200Z,8.52
2022-11-05T18:24:05.753Z,6.17
2022-11-05T18:27:08.003Z,6.55
2022-11-05T18:30:14.345Z,5.13
2022-11-05T18:33:17.034Z,5.72
2022-11-05T18:36:22.095Z,6.40
2022-11-05T18:39:25.278Z,5.67
2022-11-05T18:42:27.932Z,5.97
2022-11-05T18:45:32.030Z,8.23
2022-11-05T18:48:35.720Z,39.40
2022-11-05T18:51:39.730Z,11.15
2022-11-05T18:54:43.645Z,6.70
2022-11-05T18:57:47.133Z,6.00
2022-11-05T19:00:50.852Z,5.55
2022-11-05T19:03:58.410Z,4.68
2022-11-05T19:07:04.796Z,5.13
2022-11-05T19:10:08.440Z,7.00
2022-11-05T19:13:11.022Z,5.82
2022-11-05T19:16:17.305Z,4.63
2022-11-05T19:19:21.817Z,5.10
2022-11-05T19:22:26.605Z,5.35
2022-11-05T19:25:30.137Z,5.90
2022-11-05T19:28:32.670Z,7.25
2022-11-05T19:31:35.936Z,5.45
2022-11-05T19:34:38.803Z,6.90
2022-11-05T19:37:42.300Z,6.40
2022-11-05T19:40:46.421Z,5.70
2022-11-05T19:43:49.446Z,5.97
2022-11-05T19:46:57.787Z,6.82
2022-11-05T19:50:12.957Z,7.85
2022-11-05T19:53:16.462Z,5.00
2022-11-05T19:56:29.361Z,5.40
2022-11-05T19:59:33.421Z,6.50
2022-11-05T20:02:35.724Z,7.47
2022-11-05T20:05:38.090Z,5.03
2022-11-05T20:08:59.858Z,8.80
2022-11-05T20:12:04.194Z,5.17
2022-11-05T20:15:07.589Z,4.88
2022-11-05T20:18:10.428Z,4.30
2022-11-05T20:21:13.248Z,6.78
2022-11-05T20:24:23.553Z,5.88
2022-11-05T20:27:26.641Z,5.03
2022-11-05T20:30:29.407Z,5.18
2022-11-05T20:33:32.070Z,8.07
2022-11-05T20:36:35.268Z,7.13
2022-11-05T20:39:37.796Z,36.88
2022-11-05T20:42:40.938Z,10.30
2022-11-05T20:45:45.049Z,11.82
2022-11-05T20:48:48.385Z,7.28
2022-11-05T20:51:51.962Z,5.40
2022-11-05T20:54:54.429Z,7.03
2022-11-05T20:57:56.898Z,9.07
2022-11-05T21:00:59.495Z,15.35
2022-11-05T21:04:03.495Z,10.07
2022-11-05T21:07:06.196Z,11.07
2022-11-05T21:10:09.422Z,5.65
2022-11-05T21:13:12.427Z,6.07
2022-11-05T21:16:18.893Z,4.68
2022-11-05T21:19:24.354Z,4.47
2022-11-05T21:22:27.345Z,4.03
2022-11-05T21:25:31.148Z,4.15
2022-11-05T21:28:35.366Z,3.60
2022-11-05T21:31:39.072Z,5.18
2022-11-05T21:34:42.677Z,4.80
2022-11-05T21:37:45.774Z,4.70
2022-11-05T21:40:50.300Z,4.15
2022-11-05T21:43:53.594Z,3.23
2022-11-05T21:46:57.852Z,3.28
2022-11-05T21:50:01.118Z,4.10
2022-11-05T21:53:21.878Z,3.80
2022-11-05T21:56:44.992Z,3.50
2022-11-05T21:59:48.690Z,4.00
2022-11-05T22:02:51.687Z,3.95
2022-11-05T22:05:56.019Z,3.63
2022-11-05T22:08:58.163Z,3.53
2022-11-05T22:12:00.819Z,3.78
2022-11-05T22:15:03.368Z,3.70
2022-11-05T22:18:05.652Z,6.80
2022-11-05T22:21:08.178Z,4.70
2022-11-05T22:24:10.573Z,4.80
2022-11-05T22:27:15.044Z,4.03
2022-11-05T22:30:17.243Z,3.37
2022-11-05T22:33:19.371Z,3.45
2022-11-05T22:36:21.845Z,3.83
2022-11-05T22:39:24.059Z,4.07
2022-11-05T22:42:26.277Z,3.17
2022-11-05T22:45:28.521Z,4.00
2022-11-05T22:48:30.677Z,5.60
2022-11-05T22:51:34.813Z,3.10
2022-11-05T22:54:39.448Z,2.83
2022-11-05T22:57:42.014Z,3.97
2022-11-05T23:00:44.155Z,3.43
2022-11-05T23:03:47.591Z,3.58
2022-11-05T23:07:08.289Z,3.00
2022-11-05T23:10:29.231Z,3.15
2022-11-05T23:13:31.406Z,3.47
2022-11-05T23:17:11.904Z,3.00
2022-11-05T23:20:43.127Z,4.30
2022-11-05T23:24:04.281Z,4.78
2022-11-05T23:27:06.754Z,3.15
2022-11-05T23:30:12.540Z,3.80
2022-11-05T23:33:14.747Z,3.70
2022-11-05T23:36:35.498Z,3.97
2022-11-05T23:39:42.469Z,4.32
2022-11-05T23:43:04.551Z,4.07
2022-11-05T23:46:26.923Z,6.25
2022-11-05T23:49:29.172Z,4.20
2022-11-05T23:52:31.367Z,3.95
2022-11-05T23:55:33.717Z,4.10
2022-11-05T23:58:36.878Z,3.50
